Time;durP1;ratioP1;P1;durP2;ratioP2;P2;SDS_P1;SDS_P2;PMS_P1;PMS_P2;Temp;Humidity;BMP_temperature;BMP_pressure;BME280_temperature;BME280_humidity;BME280_pressure;Samples;Min_cycle;Max_cycle;Signal;HPM_P1;HPM_P2
2022/02/09 00:00:53;;;;;;;;;;;;;;;;;;4367520;32;20084;-72
2022/02/09 00:03:21;;;;;;;12.20;2.70;;;;;;;;;;4379984;32;19934;-70
2022/02/09 00:06:01;;;;;;;10.57;3.25;;;;;;;;;;4367749;32;20053;-71
2022/02/09 00:08:26;;;;;;;14.30;3.75;;;;;;;;;;4395663;32;20065;-70
2022/02/09 00:11:03;;;;;;;;;;;;;;;;;;4394502;32;20400;-71
2022/02/09 00:13:49;;;;;;;10.88;3.12;;;;;;;;;;4379694;32;19946;-71
2022/02/09 00:19:05;;;;;;;7.65;3.12;;;;;;;;;;4392408;32;20018;-70
2022/02/09 00:22:02;;;;;;;12.52;4.00;;;;;;;;;;4377744;32;20127;-72
2022/02/09 00:30:10;;;;;;;11.48;4.30;;;;;;;;;;4393134;32;20084;-71
2022/02/09 00:37:38;;;;;;;;;;;;;;;;;;4378810;32;20458;-71
2022/02/09 00:40:32;;;;;;;9.00;5.25;;;;;;;;;;4379066;32;19981;-71
2022/02/09 01:51:16;;;;;;;9.75;5.85;;;;;;;;;;4347500;33;20046;-84
2022/02/09 01:56:38;;;;;;;13.05;5.57;;;;;;;;;;4346898;33;20054;-83
2022/02/09 01:59:04;;;;;;;10.32;5.30;;;;;;;;;;4347378;33;20015;-83
2022/02/09 02:01:30;;;;;;;;;;;;;;;;;;4333700;33;20073;-84
2022/02/09 02:03:59;;;;;;;11.90;5.97;;;;;;;;;;4345274;33;19965;-83
2022/02/09 02:06:24;;;;;;;12.35;6.45;;;;;;;;;;4333069;33;20091;-84
2022/02/09 02:08:54;;;;;;;;;;;;;;;;;;4347094;33;20023;-84
2022/02/09 02:11:28;;;;;;;9.13;6.43;;;;;;;;;;4345524;33;19931;-84
2022/02/09 02:16:45;;;;;;;12.82;7.68;;;;;;;;;;4331992;33;20093;-83
2022/02/09 02:19:26;;;;;;;12.05;7.37;;;;;;;;;;4318379;33;20074;-85
2022/02/09 02:27:39;;;;;;;12.25;8.35;;;;;;;;;;4331809;33;20046;-83
2022/02/09 02:30:21;;;;;;;18.05;8.18;;;;;;;;;;4331867;33;20087;-83
2022/02/09 02:33:12;;;;;;;10.95;8.75;;;;;;;;;;4332346;33;20057;-85
2022/02/09 02:38:55;;;;;;;11.95;8.73;;;;;;;;;;4337622;33;20062;-85
2022/02/09 03:12:35;;;;;;;10.98;9.30;;;;;;;;;;4347631;33;20507;-83
2022/02/09 03:17:51;;;;;;;16.77;9.20;;;;;;;;;;4347885;33;20032;-84
2022/02/09 03:20:34;;;;;;;11.52;8.52;;;;;;;;;;4333604;33;20389;-83
2022/02/09 03:49:16;;;;;;;10.15;7.85;;;;;;;;;;4330385;33;20099;-83
2022/02/09 03:52:44;;;;;;;9.02;7.68;;;;;;;;;;4317561;33;20349;-83
2022/02/09 03:58:04;;;;;;;9.15;8.13;;;;;;;;;;4330461;33;20031;-83
2022/02/09 04:00:34;;;;;;;;;;;;;;;;;;4330842;33;20083;-83
2022/02/09 04:03:34;;;;;;;10.43;8.55;;;;;;;;;;4331233;33;19935;-84
2022/02/09 04:06:19;;;;;;;10.68;8.88;;;;;;;;;;4330891;33;20409;-83
2022/02/09 04:08:52;;;;;;;11.20;9.20;;;;;;;;;;4317044;33;20131;-83
2022/02/09 04:11:45;;;;;;;13.95;9.95;;;;;;;;;;4337438;33;20357;-83
2022/02/09 04:20:28;;;;;;;11.18;9.50;;;;;;;;;;4344985;33;20028;-85
2022/02/09 04:36:09;;;;;;;11.05;9.73;;;;;;;;;;4345212;33;20047;-84
2022/02/09 04:40:46;;;;;;;11.35;8.55;;;;;;;;;;4347682;33;20508;-84
2022/02/09 04:51:23;;;;;;;9.82;8.38;;;;;;;;;;4347200;33;20401;-85
2022/02/09 05:29:01;;;;;;;18.10;10.75;;;;;;;;;;4347526;33;20108;-83
2022/02/09 05:31:26;;;;;;;14.70;12.02;;;;;;;;;;4346620;33;20028;-84
2022/02/09 05:33:52;;;;;;;;;;;;;;;;;;4347209;33;20050;-84
2022/02/09 05:36:20;;;;;;;13.07;11.63;;;;;;;;;;4333427;33;19961;-84
2022/02/09 05:38:46;;;;;;;14.00;12.25;;;;;;;;;;4346933;33;20549;-83
2022/02/09 05:41:11;;;;;;;;;;;;;;;;;;4346054;33;20024;-83
2022/02/09 05:43:37;;;;;;;18.55;12.68;;;;;;;;;;4333618;33;19949;-83
2022/02/09 05:46:53;;;;;;;;;;;;;;;;;;4333787;33;20031;-80
2022/02/09 05:49:30;;;;;;;16.10;12.77;;;;;;;;;;4345588;33;19961;-83
2022/02/09 05:52:02;;;;;;;14.48;12.05;;;;;;;;;;4318757;33;20024;-83
2022/02/09 05:54:58;;;;;;;15.30;12.73;;;;;;;;;;4332172;33;20058;-82
2022/02/09 05:57:28;;;;;;;17.50;12.90;;;;;;;;;;4332875;33;20028;-82
2022/02/09 05:59:59;;;;;;;15.43;12.63;;;;;;;;;;4318891;33;20087;-84
2022/02/09 06:02:24;;;;;;;16.17;11.65;;;;;;;;;;4331075;33;20016;-82
2022/02/09 06:04:49;;;;;;;;;;;;;;;;;;4334682;33;20027;-84
2022/02/09 06:07:26;;;;;;;16.98;11.85;;;;;;;;;;4333709;33;20335;-85
2022/02/09 06:09:51;;;;;;;19.08;11.90;;;;;;;;;;4333548;33;20031;-84
2022/02/09 06:12:32;;;;;;;;;;;;;;;;;;4346945;33;20365;-83
2022/02/09 06:20:13;;;;;;;18.25;11.98;;;;;;;;;;4346932;33;20062;-83
2022/02/09 06:22:41;;;;;;;;;;;;;;;;;;4333725;33;20079;-83
2022/02/09 06:25:06;;;;;;;18.00;14.93;;;;;;;;;;4333092;33;20313;-82
2022/02/09 06:27:31;;;;;;;;;;;;;;;;;;4346996;33;20050;-83
2022/02/09 06:29:57;;;;;;;14.23;12.50;;;;;;;;;;4346251;33;19994;-83
2022/02/09 06:32:27;;;;;;;;;;;;;;;;;;4333032;33;20143;-83
2022/02/09 06:34:55;;;;;;;18.30;13.48;;;;;;;;;;4332866;33;19995;-82
2022/02/09 06:37:36;;;;;;;16.37;13.20;;;;;;;;;;4333031;33;20077;-83
2022/02/09 06:40:07;;;;;;;16.80;14.23;;;;;;;;;;4344949;33;20445;-83
2022/02/09 06:42:35;;;;;;;16.92;14.55;;;;;;;;;;4346471;33;20070;-82
2022/02/09 06:45:07;;;;;;;16.60;13.10;;;;;;;;;;4332603;33;20028;-83
2022/02/09 06:47:44;;;;;;;15.20;13.18;;;;;;;;;;4345511;33;20050;-86
2022/02/09 06:50:17;;;;;;;17.52;13.43;;;;;;;;;;4347689;33;20031;-83
2022/02/09 06:52:59;;;;;;;16.33;14.07;;;;;;;;;;4332983;33;20410;-83
2022/02/09 06:55:25;;;;;;;17.45;15.35;;;;;;;;;;4346152;33;20042;-84
2022/02/09 07:00:22;;;;;;;19.73;15.98;;;;;;;;;;4345397;33;20378;-81
2022/02/09 07:02:51;;;;;;;20.45;15.90;;;;;;;;;;4345757;33;20078;-80
2022/02/09 07:05:20;;;;;;;21.02;17.12;;;;;;;;;;4345459;33;20437;-82
2022/02/09 07:07:45;;;;;;;23.15;17.70;;;;;;;;;;4333100;33;20050;-81
2022/02/09 07:10:10;;;;;;;;;;;;;;;;;;4345655;33;20364;-78
2022/02/09 07:12:41;;;;;;;20.30;17.15;;;;;;;;;;4345892;33;19943;-82
2022/02/09 07:15:09;;;;;;;22.52;16.33;;;;;;;;;;4332119;33;20055;-80
2022/02/09 07:17:38;;;;;;;20.58;15.90;;;;;;;;;;4332514;33;20039;-81
2022/02/09 07:20:12;;;;;;;19.37;15.77;;;;;;;;;;4344509;33;20027;-83
2022/02/09 07:22:38;;;;;;;21.00;16.42;;;;;;;;;;4346076;33;20131;-83
2022/02/09 07:25:14;;;;;;;;;;;;;;;;;;4346278;33;20346;-84
2022/02/09 07:27:50;;;;;;;18.70;14.45;;;;;;;;;;4346700;33;19953;-83
2022/02/09 07:30:22;;;;;;;21.42;13.20;;;;;;;;;;4345036;33;20031;-84
2022/02/09 07:32:59;;;;;;;16.12;12.57;;;;;;;;;;4345713;33;20066;-83
2022/02/09 07:35:27;;;;;;;17.40;13.18;;;;;;;;;;4346093;33;20085;-81
2022/02/09 07:37:55;;;;;;;14.87;11.70;;;;;;;;;;4345792;33;20093;-80
2022/02/09 07:40:21;;;;;;;12.90;11.10;;;;;;;;;;4344356;33;20039;-80
2022/02/09 07:42:50;;;;;;;;;;;;;;;;;;4332315;33;20066;-81
2022/02/09 07:47:59;;;;;;;;;;;;;;;;;;4345495;33;20024;-82
2022/02/09 07:55:36;;;;;;;16.90;14.98;;;;;;;;;;4315031;33;19977;-82
2022/02/09 07:58:01;;;;;;;;;;;;;;;;;;4346222;33;20028;-81
2022/02/09 08:00:27;;;;;;;16.70;14.87;;;;;;;;;;4344600;33;19946;-81
2022/02/09 08:02:52;;;;;;;;;;;;;;;;;;4345660;33;20036;-82
2022/02/09 08:05:21;;;;;;;15.77;13.98;;;;;;;;;;4345077;33;19990;-82
2022/02/09 08:07:46;;;;;;;19.98;15.48;;;;;;;;;;4331427;33;20465;-81
2022/02/09 08:10:21;;;;;;;;;;;;;;;;;;4332109;33;20036;-83
2022/02/09 08:20:25;;;;;;;16.12;13.95;;;;;;;;;;4347590;33;19969;-82
2022/02/09 08:26:55;;;;;;;19.58;13.43;;;;;;;;;;4348251;33;20055;-82
2022/02/09 08:29:25;;;;;;;13.88;12.52;;;;;;;;;;4333013;33;20023;-83
2022/02/09 08:34:25;;;;;;;19.33;11.40;;;;;;;;;;4347955;33;20045;-82
2022/02/09 08:37:01;;;;;;;;;;;;;;;;;;4346817;33;20036;-82
2022/02/09 08:39:38;;;;;;;14.05;9.85;;;;;;;;;;4331866;33;19939;-82
2022/02/09 08:42:13;;;;;;;13.32;11.48;;;;;;;;;;4332801;33;20472;-83
2022/02/09 08:44:41;;;;;;;12.90;11.10;;;;;;;;;;4332675;33;20463;-83
2022/02/09 08:47:09;;;;;;;11.50;10.15;;;;;;;;;;4333155;33;20024;-82
2022/02/09 08:52:23;;;;;;;11.27;10.07;;;;;;;;;;4327245;33;20066;-82
2022/02/09 08:54:50;;;;;;;15.77;9.82;;;;;;;;;;4332679;33;20110;-83
2022/02/09 08:57:27;;;;;;;16.58;9.80;;;;;;;;;;4332601;33;20098;-82
2022/02/09 08:59:52;;;;;;;11.52;10.23;;;;;;;;;;4333131;33;20020;-79
2022/02/09 09:02:33;;;;;;;;;;;;;;;;;;;;;
2022/02/09 09:05:17;;;;;;;14.38;12.23;;;;;;;;;;4333015;33;20004;-82
2022/02/09 09:07:48;;;;;;;13.45;10.32;;;;;;;;;;4332967;33;20397;-80
2022/02/09 09:10:20;;;;;;;15.43;12.27;;;;;;;;;;4332621;33;20467;-83
2022/02/09 10:05:08;;;;;;;15.18;9.85;;;;;;;;;;4339490;33;20035;-81
2022/02/09 10:33:14;;;;;;;;;;;;;;;;;;;;;
2022/02/09 10:36:02;;;;;;;15.05;9.90;;;;;;;;;;4345988;33;20058;-81
2022/02/09 10:38:35;;;;;;;13.38;9.82;;;;;;;;;;4330247;33;20450;-80
2022/02/09 10:41:28;;;;;;;14.68;10.63;;;;;;;;;;4331177;33;20028;-80
2022/02/09 10:44:06;;;;;;;12.68;9.38;;;;;;;;;;4331278;33;20032;-80
2022/02/09 10:46:44;;;;;;;12.95;10.23;;;;;;;;;;4331418;33;20050;-81
2022/02/09 10:49:23;;;;;;;12.98;11.07;;;;;;;;;;4331175;33;20377;-80
2022/02/09 10:52:03;;;;;;;14.90;11.15;;;;;;;;;;4317980;33;20055;-79
2022/02/09 10:54:41;;;;;;;15.93;10.80;;;;;;;;;;4331861;33;20094;-79
2022/02/09 10:57:11;;;;;;;13.57;11.07;;;;;;;;;;4319264;33;20024;-82
2022/02/09 10:59:37;;;;;;;14.55;11.93;;;;;;;;;;4332198;33;20094;-82
2022/02/09 11:02:02;;;;;;;;;;;;;;;;;;4333156;33;20058;-81
2022/02/09 11:04:51;;;;;;;16.55;11.73;;;;;;;;;;4332014;33;20005;-79
2022/02/09 11:07:20;;;;;;;14.77;11.93;;;;;;;;;;4326780;33;20063;-79
2022/02/09 11:09:45;;;;;;;15.23;12.77;;;;;;;;;;4331894;33;20051;-79
2022/02/09 11:12:13;;;;;;;;;;;;;;;;;;4331012;33;20031;-81
2022/02/09 11:14:42;;;;;;;17.35;14.20;;;;;;;;;;4330113;33;19974;-80
2022/02/09 11:17:20;;;;;;;;;;;;;;;;;;;;;
2022/02/09 11:19:51;;;;;;;18.52;13.90;;;;;;;;;;4330783;33;20020;-82
2022/02/09 11:22:25;;;;;;;16.85;13.07;;;;;;;;;;4332057;33;20303;-81
2022/02/09 11:25:11;;;;;;;19.12;13.05;;;;;;;;;;4331224;33;20436;-81
2022/02/09 11:27:58;;;;;;;19.02;12.95;;;;;;;;;;4341590;33;20365;-81
2022/02/09 11:35:58;;;;;;;20.73;13.07;;;;;;;;;;4345434;33;20027;-78
2022/02/09 11:38:39;;;;;;;18.60;13.48;;;;;;;;;;4332272;33;20099;-80
2022/02/09 11:41:18;;;;;;;18.42;12.80;;;;;;;;;;4344980;33;20024;-81
2022/02/09 11:44:02;;;;;;;20.83;14.80;;;;;;;;;;4332785;33;20024;-79
2022/02/09 11:46:45;;;;;;;20.25;13.10;;;;;;;;;;4347339;33;20020;-80
2022/02/09 11:54:48;;;;;;;14.98;12.30;;;;;;;;;;4348784;33;20062;-81
2022/02/09 12:11:27;;;;;;;17.50;12.95;;;;;;;;;;4348498;33;20062;-79
2022/02/09 12:14:03;;;;;;;15.32;13.25;;;;;;;;;;4347925;33;20024;-79
2022/02/09 12:16:41;;;;;;;19.40;12.95;;;;;;;;;;4348125;33;20055;-79
2022/02/09 12:19:11;;;;;;;19.80;11.75;;;;;;;;;;4348806;33;20020;-80
2022/02/09 12:21:41;;;;;;;18.08;12.73;;;;;;;;;;4348124;33;20044;-80
2022/02/09 12:24:27;;;;;;;18.73;13.15;;;;;;;;;;4334528;33;20046;-80
2022/02/09 12:27:08;;;;;;;15.98;12.20;;;;;;;;;;4347945;33;20039;-80
2022/02/09 12:29:39;;;;;;;19.42;12.27;;;;;;;;;;4348002;33;20036;-81
2022/02/09 12:32:16;;;;;;;20.20;11.20;;;;;;;;;;4348408;33;20099;-81
2022/02/09 12:35:05;;;;;;;22.90;15.57;;;;;;;;;;4334427;33;20097;-81
2022/02/09 12:37:32;;;;;;;26.15;13.00;;;;;;;;;;4334883;33;20385;-80
2022/02/09 12:39:58;;;;;;;15.32;10.63;;;;;;;;;;4334133;33;20111;-79
2022/02/09 12:42:26;;;;;;;;;;;;;;;;;;4334310;33;20046;-80
2022/02/09 12:45:04;;;;;;;15.13;9.52;;;;;;;;;;4333694;33;19966;-81
2022/02/09 12:47:33;;;;;;;13.02;8.52;;;;;;;;;;4346811;33;20063;-80
2022/02/09 12:50:00;;;;;;;11.80;7.30;;;;;;;;;;4347099;33;20102;-81
2022/02/09 12:52:28;;;;;;;15.05;8.45;;;;;;;;;;4347607;33;20479;-81
2022/02/09 12:55:20;;;;;;;11.65;7.43;;;;;;;;;;4333858;33;20028;-81
2022/02/09 12:57:49;;;;;;;10.77;7.70;;;;;;;;;;4345177;33;20357;-81
2022/02/09 13:00:21;;;;;;;11.80;7.95;;;;;;;;;;4347177;33;20028;-80
2022/02/09 13:03:05;;;;;;;12.30;7.53;;;;;;;;;;4346791;33;20070;-81
2022/02/09 13:05:31;;;;;;;13.10;8.48;;;;;;;;;;4333460;33;20397;-78
2022/02/09 13:07:56;;;;;;;;;;;;;;;;;;4347980;33;20028;-80
2022/02/09 13:10:32;;;;;;;16.85;9.50;;;;;;;;;;4345092;33;20026;-79
2022/02/09 13:13:03;;;;;;;14.40;8.30;;;;;;;;;;4332442;33;20028;-81
2022/02/09 13:15:33;;;;;;;10.85;7.50;;;;;;;;;;4347388;33;20091;-81
2022/02/09 13:21:03;;;;;;;15.30;8.13;;;;;;;;;;4347616;33;20032;-80
2022/02/09 14:03:36;;;;;;;21.23;11.27;;;;;;;;;;4346961;33;20035;-80
2022/02/09 14:11:43;;;;;;;17.15;9.98;;;;;;;;;;4346566;33;20070;-81
2022/02/09 14:17:06;;;;;;;17.52;9.77;;;;;;;;;;4346773;33;20046;-78
2022/02/09 14:55:43;;;;;;;28.33;16.15;;;;;;;;;;4345876;33;20111;-81
2022/02/09 14:58:22;;;;;;;25.50;14.60;;;;;;;;;;4344713;33;20024;-80
2022/02/09 15:01:34;;;;;;;25.60;13.90;;;;;;;;;;4345750;33;20050;-80
2022/02/09 15:08:34;;;;;;;25.90;11.65;;;;;;;;;;4345880;33;19947;-79
2022/02/09 15:11:15;;;;;;;25.25;13.55;;;;;;;;;;4345760;33;20023;-82
2022/02/09 15:14:07;;;;;;;22.45;12.90;;;;;;;;;;4346387;33;20126;-80
2022/02/09 15:16:43;;;;;;;21.77;12.82;;;;;;;;;;4332242;33;20035;-81
2022/02/09 15:21:58;;;;;;;27.25;14.63;;;;;;;;;;4346594;33;20536;-81
2022/02/09 15:24:24;;;;;;;31.98;16.62;;;;;;;;;;4346594;33;20451;-82
2022/02/09 15:26:52;;;;;;;25.23;14.35;;;;;;;;;;4346225;33;20027;-79
2022/02/09 15:29:18;;;;;;;26.52;14.15;;;;;;;;;;4345542;33;20035;-82
2022/02/09 15:31:52;;;;;;;28.52;14.18;;;;;;;;;;4345560;33;20070;-81
2022/02/09 15:34:28;;;;;;;23.83;14.43;;;;;;;;;;4346298;33;20417;-78
2022/02/09 15:39:36;;;;;;;33.83;17.05;;;;;;;;;;4345295;33;20107;-81
2022/02/09 15:42:25;;;;;;;26.17;16.20;;;;;;;;;;4345396;33;20023;-80
2022/02/09 16:05:42;;;;;;;40.40;20.98;;;;;;;;;;4327318;33;20032;-78
2022/02/09 16:10:41;;;;;;;35.22;21.65;;;;;;;;;;4345891;33;20380;-79
2022/02/09 16:16:37;;;;;;;40.40;23.73;;;;;;;;;;4345428;33;20015;-79
2022/02/09 16:24:25;;;;;;;40.80;22.40;;;;;;;;;;4344970;33;19942;-78
2022/02/09 16:37:55;;;;;;;36.20;18.92;;;;;;;;;;4348428;33;20038;-79
2022/02/09 16:48:30;;;;;;;42.97;22.05;;;;;;;;;;4347869;33;20059;-79
2022/02/09 16:51:11;;;;;;;47.60;23.52;;;;;;;;;;4347796;33;20066;-79
2022/02/09 17:18:55;;;;;;;51.90;27.20;;;;;;;;;;4347286;33;20024;-79
2022/02/09 17:21:22;;;;;;;36.17;20.85;;;;;;;;;;4347506;33;20020;-79
2022/02/09 17:23:52;;;;;;;45.22;25.25;;;;;;;;;;4347129;33;20058;-80
2022/02/09 17:26:17;;;;;;;49.65;24.63;;;;;;;;;;4347223;33;20028;-79
2022/02/09 17:28:43;;;;;;;;;;;;;;;;;;4334239;33;20410;-79
2022/02/09 17:31:35;;;;;;;54.15;24.92;;;;;;;;;;4321614;33;19978;-78
2022/02/09 17:58:27;;;;;;;59.40;31.67;;;;;;;;;;4332327;33;20063;-79
2022/02/09 18:00:53;;;;;;;69.05;32.15;;;;;;;;;;4333157;33;20440;-77
2022/02/09 18:03:19;;;;;;;;;;;;;;;;;;4332329;33;20028;-76
2022/02/09 18:05:49;;;;;;;65.82;32.92;;;;;;;;;;4331998;33;19991;-77
2022/02/09 18:11:24;;;;;;;67.18;34.45;;;;;;;;;;4313846;33;20048;-75
2022/02/09 18:30:22;;;;;;;83.05;33.00;;;;;;;;;;4331836;33;20096;-78
2022/02/09 18:38:33;;;;;;;65.15;29.52;;;;;;;;;;4331736;33;20071;-76
2022/02/09 19:01:00;;;;;;;71.82;33.28;;;;;;;;;;4259019;33;19948;-78
2022/02/09 19:03:07;;;;;;;79.65;36.63;;;;;;;;;;4259159;33;20450;-78
2022/02/09 19:05:39;;;;;;;73.95;34.75;;;;;;;;;;4259366;33;20021;-78
2022/02/09 19:26:51;;;;;;;64.75;31.10;;;;;;;;;;4259008;33;20048;-79
2022/02/09 19:44:01;;;;;;;60.60;32.30;;;;;;;;;;4274976;33;20098;-79
2022/02/09 19:48:35;;;;;;;68.82;32.63;;;;;;;;;;4273908;33;20494;-79
2022/02/09 19:56:28;;;;;;;67.72;34.20;;;;;;;;;;4267330;33;20025;-79
2022/02/09 19:59:01;;;;;;;;;;;;;;;;;;4260568;33;20052;-80
2022/02/09 20:01:36;;;;;;;54.88;31.52;;;;;;;;;;4261766;33;19937;-79
2022/02/09 20:04:03;;;;;;;62.33;34.00;;;;;;;;;;4262967;33;20068;-80
2022/02/09 20:06:28;;;;;;;59.38;33.70;;;;;;;;;;4261559;33;20171;-78
2022/02/09 20:08:53;;;;;;;;;;;;;;;;;;4264384;33;20038;-78
2022/02/09 20:11:19;;;;;;;53.55;32.95;;;;;;;;;;4264348;33;19980;-79
2022/02/09 20:13:44;;;;;;;;;;;;;;;;;;4265434;33;20389;-80
2022/02/09 20:16:09;;;;;;;56.42;34.20;;;;;;;;;;4263784;33;19952;-80
2022/02/09 20:18:35;;;;;;;;;;;;;;;;;;4265395;33;20057;-79
2022/02/09 20:21:01;;;;;;;60.25;33.45;;;;;;;;;;4262753;33;19991;-81
2022/02/09 20:23:31;;;;;;;;;;;;;;;;;;4261780;33;20154;-80
2022/02/09 20:25:58;;;;;;;51.35;29.48;;;;;;;;;;4275968;33;19937;-75
2022/02/09 20:28:24;;;;;;;52.10;30.15;;;;;;;;;;4286866;33;20073;-79
2022/02/09 20:30:57;;;;;;;;;;;;;;;;;;4276624;33;20096;-80
2022/02/09 20:33:29;;;;;;;46.30;28.65;;;;;;;;;;4286611;33;19932;-81
2022/02/09 20:35:54;;;;;;;44.58;24.70;;;;;;;;;;4276644;33;20384;-80
2022/02/09 20:38:24;;;;;;;;;;;;;;;;;;4274497;33;20056;-80
2022/02/09 20:40:54;;;;;;;58.10;32.40;;;;;;;;;;4270856;33;20014;-81
2022/02/09 20:43:22;;;;;;;48.60;30.50;;;;;;;;;;4262200;33;20069;-79
2022/02/09 20:45:53;;;;;;;48.72;28.33;;;;;;;;;;4247951;33;20034;-81
2022/02/09 20:48:23;;;;;;;44.00;27.52;;;;;;;;;;4261506;33;20018;-81
2022/02/09 20:50:49;;;;;;;48.30;28.35;;;;;;;;;;4259516;33;20073;-81
2022/02/09 20:53:15;;;;;;;;;;;;;;;;;;4273389;33;20075;-80
2022/02/09 20:55:40;;;;;;;45.40;26.30;;;;;;;;;;4275583;33;19955;-81
2022/02/09 20:58:05;;;;;;;;;;;;;;;;;;4275084;33;20041;-81
2022/02/09 21:05:50;;;;;;;47.90;24.73;;;;;;;;;;4261230;33;20040;-80
2022/02/09 21:11:11;;;;;;;55.70;25.40;;;;;;;;;;4260629;33;20138;-80
2022/02/09 21:13:54;;;;;;;55.65;25.95;;;;;;;;;;4259486;33;20430;-80
2022/02/09 21:16:52;;;;;;;65.20;27.33;;;;;;;;;;4260478;33;20045;-79
2022/02/09 21:19:39;;;;;;;59.67;27.73;;;;;;;;;;4259974;33;20026;-80
2022/02/09 21:28:34;;;;;;;63.67;31.42;;;;;;;;;;4260309;33;19980;-80
2022/02/09 22:26:51;;;;;;;75.60;36.40;;;;;;;;;;4259585;33;20052;-80
2022/02/09 22:29:40;;;;;;;78.25;35.88;;;;;;;;;;4259617;33;20022;-82
2022/02/09 22:45:56;;;;;;;77.00;39.05;;;;;;;;;;4259910;33;20073;-81
2022/02/09 22:56:03;;;;;;;64.18;36.55;;;;;;;;;;4259821;33;20382;-82
2022/02/09 22:58:29;;;;;;;66.68;36.80;;;;;;;;;;4269893;33;20022;-82
2022/02/09 23:01:05;;;;;;;;;;;;;;;;;;4259533;33;20392;-81
2022/02/09 23:06:26;;;;;;;59.58;35.70;;;;;;;;;;4259893;33;20025;-81
2022/02/09 23:14:52;;;;;;;56.00;33.38;;;;;;;;;;4259670;33;20065;-81
2022/02/09 23:58:08;;;;;;;29.73;20.35;;;;;;;;;;4258265;33;20030;-81
